createdAt,value
2022-08-05T00:00:50.360Z,9.80
2022-08-05T00:03:17.205Z,9.13
2022-08-05T00:06:04.777Z,12.40
2022-08-05T00:08:34.712Z,6.97
2022-08-05T00:11:05.300Z,10.77
2022-08-05T00:13:47.106Z,20.52
2022-08-05T00:16:20.221Z,10.95
2022-08-05T00:19:03.930Z,16.00
2022-08-05T00:21:30.856Z,8.90
2022-08-05T00:24:11.066Z,10.27
2022-08-05T00:26:46.705Z,7.50
2022-08-05T00:29:18.815Z,7.57
2022-08-05T00:32:10.603Z,8.30
2022-08-05T00:34:54.968Z,8.98
2022-08-05T00:37:22.831Z,9.15
2022-08-05T00:39:58.454Z,14.00
2022-08-05T00:42:37.060Z,7.15
2022-08-05T00:45:08.880Z,10.83
2022-08-05T00:47:56.800Z,7.75
2022-08-05T00:50:25.143Z,11.05
2022-08-05T00:52:55.337Z,9.30
2022-08-05T00:55:23.522Z,12.88
2022-08-05T00:58:11.322Z,10.47
2022-08-05T01:00:39.589Z,12.85
2022-08-05T01:03:07.646Z,7.78
2022-08-05T01:05:35.122Z,12.40
2022-08-05T01:08:41.291Z,14.07
2022-08-05T01:11:07.543Z,7.77
2022-08-05T01:14:01.011Z,8.57
2022-08-05T01:16:39.015Z,13.40
2022-08-05T01:20:01.417Z,10.02
2022-08-05T01:22:38.525Z,10.93
2022-08-05T01:25:19.321Z,9.53
2022-08-05T01:28:00.717Z,11.68
2022-08-05T01:30:34.099Z,13.00
2022-08-05T01:33:06.255Z,8.10
2022-08-05T01:35:51.111Z,9.55
2022-08-05T01:38:24.732Z,11.37
2022-08-05T01:40:55.319Z,14.70
2022-08-05T01:43:24.130Z,9.20
2022-08-05T01:45:56.236Z,8.95
2022-08-05T01:48:26.944Z,9.77
2022-08-05T01:50:55.460Z,9.47
2022-08-05T01:53:54.983Z,9.93
2022-08-05T01:56:11.628Z,13.05
2022-08-05T01:58:45.172Z,10.25
2022-08-05T02:01:14.690Z,11.43
2022-08-05T02:03:52.026Z,12.30
2022-08-05T02:06:37.151Z,11.02
2022-08-05T02:09:05.678Z,9.05
2022-08-05T02:11:52.620Z,17.35
2022-08-05T02:14:32.026Z,9.60
2022-08-05T02:17:06.878Z,10.47
2022-08-05T02:19:47.308Z,10.82
2022-08-05T02:22:26.560Z,11.88
2022-08-05T02:25:02.518Z,7.60
2022-08-05T02:27:58.566Z,8.27
2022-08-05T02:30:22.434Z,11.60
2022-08-05T02:32:52.588Z,10.13
2022-08-05T02:35:28.099Z,11.63
2022-08-05T02:38:02.427Z,15.43
2022-08-05T02:40:30.891Z,6.80
2022-08-05T02:42:59.583Z,9.27
2022-08-05T02:45:28.404Z,9.68
2022-08-05T02:48:06.427Z,9.15
2022-08-05T02:50:38.662Z,9.07
2022-08-05T02:53:11.796Z,10.88
2022-08-05T02:55:54.670Z,8.13
2022-08-05T02:58:26.837Z,8.77
2022-08-05T03:00:56.736Z,9.68
2022-08-05T03:03:24.068Z,10.25
2022-08-05T03:06:53.878Z,10.48
2022-08-05T03:08:42.808Z,8.20
2022-08-05T03:11:57.556Z,9.18
2022-08-05T03:14:07.877Z,11.05
2022-08-05T03:16:35.635Z,12.43
2022-08-05T03:19:12.496Z,9.98
2022-08-05T03:21:49.601Z,6.27
2022-08-05T03:24:23.664Z,13.25
2022-08-05T03:26:57.783Z,11.32
2022-08-05T03:29:24.708Z,10.73
2022-08-05T03:32:12.086Z,8.73
2022-08-05T03:34:42.269Z,8.17
2022-08-05T03:37:19.277Z,13.50
2022-08-05T03:40:01.226Z,10.73
2022-08-05T03:42:32.436Z,9.85
2022-08-05T03:44:59.748Z,8.48
2022-08-05T03:47:30.447Z,12.43
2022-08-05T03:50:01.941Z,9.38
2022-08-05T03:52:38.086Z,9.30
2022-08-05T03:56:04.749Z,7.57
2022-08-05T03:58:17.949Z,10.75
2022-08-05T04:00:51.441Z,9.90
2022-08-05T04:03:28.274Z,7.93
2022-08-05T04:05:57.657Z,9.57
2022-08-05T04:08:35.293Z,10.23
2022-08-05T04:11:05.149Z,11.18
2022-08-05T04:13:51.367Z,8.47
2022-08-05T04:16:25.370Z,14.35
2022-08-05T04:18:59.948Z,9.38
2022-08-05T04:22:05.764Z,9.43
2022-08-05T04:24:19.396Z,10.50
2022-08-05T04:26:50.101Z,8.93
2022-08-05T04:29:17.103Z,9.48
2022-08-05T04:31:43.686Z,8.82
2022-08-05T04:34:31.668Z,9.82
2022-08-05T04:36:56.984Z,11.75
2022-08-05T04:39:24.091Z,10.20
2022-08-05T04:41:51.795Z,8.10
2022-08-05T04:44:24.453Z,10.88
2022-08-05T04:46:58.930Z,11.43
2022-08-05T04:49:38.741Z,7.68
2022-08-05T04:52:13.084Z,8.67
2022-08-05T04:54:39.703Z,8.65
2022-08-05T04:57:06.332Z,10.10
2022-08-05T04:59:38.941Z,6.03
2022-08-05T05:02:37.225Z,9.95
2022-08-05T05:04:52.977Z,5.23
2022-08-05T05:07:29.728Z,7.13
2022-08-05T05:09:59.167Z,6.75
2022-08-05T05:12:29.324Z,5.07
2022-08-05T05:14:56.015Z,10.25
2022-08-05T05:17:24.523Z,7.37
2022-08-05T05:20:10.371Z,11.90
2022-08-05T05:22:40.736Z,5.75
2022-08-05T05:25:16.620Z,5.18
2022-08-05T05:27:53.804Z,8.95
2022-08-05T05:30:31.443Z,4.97
2022-08-05T05:33:14.189Z,5.57
2022-08-05T05:35:47.462Z,4.45
2022-08-05T05:38:15.103Z,6.30
2022-08-05T05:40:51.856Z,7.55
2022-08-05T05:43:54.383Z,5.27
2022-08-05T05:46:15.854Z,5.93
2022-08-05T05:48:44.405Z,5.28
2022-08-05T05:51:15.233Z,6.55
2022-08-05T05:53:54.456Z,6.22
2022-08-05T05:56:32.862Z,3.70
2022-08-05T05:59:03.580Z,5.82
2022-08-05T06:01:38.010Z,4.65
2022-08-05T06:04:14.481Z,5.55
2022-08-05T06:06:43.082Z,7.88
2022-08-05T06:09:16.961Z,4.87
2022-08-05T06:12:01.838Z,6.70
2022-08-05T06:14:30.424Z,7.10
2022-08-05T06:16:57.931Z,5.43
2022-08-05T06:19:26.063Z,5.40
2022-08-05T06:22:06.431Z,6.63
2022-08-05T06:24:34.234Z,8.52
2022-08-05T06:27:01.727Z,5.22
2022-08-05T06:29:48.134Z,8.30
2022-08-05T06:32:20.913Z,4.35
2022-08-05T06:34:53.590Z,5.63
2022-08-05T06:37:56.505Z,5.38
2022-08-05T06:40:10.681Z,5.10
2022-08-05T06:42:39.855Z,4.72
2022-08-05T06:45:08.932Z,7.50
2022-08-05T06:48:36.368Z,4.73
2022-08-05T06:50:22.873Z,4.85
2022-08-05T06:53:04.003Z,5.13
2022-08-05T06:55:37.100Z,9.35
2022-08-05T06:58:19.754Z,4.28
2022-08-05T07:00:47.254Z,4.17
2022-08-05T07:03:14.072Z,3.15
2022-08-05T07:05:43.767Z,4.72
2022-08-05T07:08:13.079Z,5.55
2022-08-05T07:10:53.083Z,7.30
2022-08-05T07:13:57.768Z,2.63
2022-08-05T07:17:56.566Z,5.05
2022-08-05T07:20:23.049Z,4.55
2022-08-05T07:22:22.138Z,2.80
2022-08-05T07:24:56.734Z,3.80
2022-08-05T07:27:27.267Z,4.20
2022-08-05T07:30:24.260Z,2.72
2022-08-05T07:32:41.071Z,7.95
2022-08-05T07:36:01.483Z,6.10
2022-08-05T07:37:59.021Z,4.07
2022-08-05T07:40:33.011Z,3.50
2022-08-05T07:43:04.790Z,4.13
2022-08-05T07:45:58.260Z,3.55
2022-08-05T07:49:02.903Z,2.95
2022-08-05T07:51:23.018Z,5.97
2022-08-05T07:53:51.821Z,4.57
2022-08-05T07:57:00.265Z,3.92
2022-08-05T07:59:08.627Z,3.80
2022-08-05T08:01:35.591Z,4.30
2022-08-05T08:04:34.373Z,6.32
2022-08-05T08:07:07.435Z,5.13
2022-08-05T08:09:35.035Z,4.07
2022-08-05T08:12:14.312Z,4.75
2022-08-05T08:14:47.079Z,4.70
2022-08-05T08:17:15.950Z,4.20
2022-08-05T08:20:22.756Z,3.97
2022-08-05T08:22:32.358Z,3.10
2022-08-05T08:25:03.082Z,4.47
2022-08-05T08:27:40.256Z,3.92
2022-08-05T08:30:20.314Z,3.53
2022-08-05T08:33:04.395Z,2.47
2022-08-05T08:35:35.156Z,6.32
2022-08-05T08:38:08.258Z,3.83
2022-08-05T08:40:39.298Z,3.33
2022-08-05T08:44:55.761Z,5.68
2022-08-05T08:45:55.012Z,7.93
2022-08-05T08:48:42.896Z,3.20
2022-08-05T08:51:30.655Z,2.75
2022-08-05T08:53:58.010Z,3.72
2022-08-05T08:56:26.994Z,2.97
2022-08-05T08:58:54.896Z,5.07
2022-08-05T09:01:25.615Z,3.08
2022-08-05T09:03:57.586Z,2.60
2022-08-05T09:06:28.075Z,2.08
2022-08-05T09:08:57.196Z,3.28
2022-08-05T09:11:51.835Z,3.80
2022-08-05T09:14:58.931Z,4.07
2022-08-05T09:17:00.399Z,2.75
2022-08-05T09:19:36.378Z,3.92
2022-08-05T09:22:23.427Z,4.65
2022-08-05T09:25:23.702Z,4.30
2022-08-05T09:28:04.704Z,3.17
2022-08-05T09:30:34.733Z,2.70
2022-08-05T09:33:02.684Z,3.90
2022-08-05T09:35:31.605Z,2.40
2022-08-05T09:38:16.164Z,2.13
2022-08-05T09:40:52.229Z,5.30
2022-08-05T09:43:41.667Z,3.22
2022-08-05T09:46:51.919Z,3.15
2022-08-05T09:49:54.486Z,2.95
2022-08-05T09:52:28.442Z,2.90
2022-08-05T09:55:55.361Z,3.22
2022-08-05T09:57:58.567Z,2.97
2022-08-05T10:00:26.889Z,2.78
2022-08-05T10:02:54.818Z,2.45
2022-08-05T10:05:28.108Z,4.87
2022-08-05T10:08:35.031Z,4.05
2022-08-05T10:10:44.283Z,2.97
2022-08-05T10:13:12.211Z,2.58
2022-08-05T10:15:42.046Z,3.03
2022-08-05T10:18:16.784Z,2.53
2022-08-05T10:20:48.309Z,3.00
2022-08-05T10:23:56.113Z,2.88
2022-08-05T10:26:16.272Z,3.38
2022-08-05T10:28:46.321Z,5.53
2022-08-05T10:32:49.069Z,6.07
2022-08-05T10:34:07.029Z,3.72
2022-08-05T10:36:38.662Z,4.07
2022-08-05T10:39:11.753Z,2.75
2022-08-05T10:42:00.863Z,3.15
2022-08-05T10:44:29.589Z,3.63
2022-08-05T10:46:57.287Z,3.63
2022-08-05T10:49:26.825Z,7.75
2022-08-05T10:52:02.592Z,5.93
2022-08-05T10:55:02.576Z,5.72
2022-08-05T10:57:32.051Z,3.13
2022-08-05T11:00:19.166Z,3.40
2022-08-05T11:03:23.274Z,2.55
2022-08-05T11:06:08.544Z,3.30
2022-08-05T11:09:31.854Z,2.90
2022-08-05T11:12:06.372Z,4.67
2022-08-05T11:17:59.953Z,4.40
2022-08-05T11:20:47.436Z,4.07
2022-08-05T11:24:05.192Z,4.20
2022-08-05T11:26:39.511Z,4.17
2022-08-05T11:29:13.015Z,3.70
2022-08-05T11:31:58.243Z,5.30
2022-08-05T11:34:38.764Z,3.50
2022-08-05T11:37:06.289Z,3.65
2022-08-05T11:40:00.316Z,3.90
2022-08-05T11:42:38.116Z,3.10
2022-08-05T11:45:14.253Z,4.38
2022-08-05T11:47:54.515Z,3.75
2022-08-05T11:50:21.678Z,4.65
2022-08-05T11:52:49.683Z,4.17
2022-08-05T11:55:17.833Z,2.92
2022-08-05T11:58:10.223Z,2.42
2022-08-05T12:00:37.984Z,3.08
2022-08-05T12:03:29.086Z,2.20
2022-08-05T12:06:02.877Z,2.73
2022-08-05T12:08:31.467Z,4.55
2022-08-05T12:11:05.539Z,6.63
2022-08-05T12:13:48.731Z,2.80
2022-08-05T12:16:19.407Z,3.25
2022-08-05T12:18:52.219Z,1.87
2022-08-05T12:21:50.657Z,2.65
2022-08-05T12:24:20.117Z,2.55
2022-08-05T12:26:50.095Z,2.22
2022-08-05T12:29:23.288Z,2.38
2022-08-05T12:31:53.422Z,2.87
2022-08-05T12:34:28.354Z,2.65
2022-08-05T12:36:57.121Z,3.47
2022-08-05T12:39:27.935Z,4.57
2022-08-05T12:42:01.026Z,3.70
2022-08-05T12:44:33.400Z,2.37
2022-08-05T12:47:02.039Z,3.60
2022-08-05T12:50:03.065Z,3.22
2022-08-05T12:52:32.406Z,2.67
2022-08-05T12:55:02.213Z,1.88
2022-08-05T12:58:38.011Z,4.60
2022-08-05T13:02:02.132Z,2.63
2022-08-05T13:03:13.648Z,2.90
2022-08-05T13:05:41.567Z,2.80
2022-08-05T13:08:08.974Z,3.60
2022-08-05T13:10:48.776Z,2.57
2022-08-05T13:14:06.089Z,4.30
2022-08-05T13:16:15.507Z,3.78
2022-08-05T13:18:55.274Z,2.95
2022-08-05T13:21:28.010Z,2.63
2022-08-05T13:23:55.515Z,2.60
2022-08-05T13:26:29.770Z,4.07
2022-08-05T13:28:57.299Z,4.60
2022-08-05T13:32:03.161Z,3.33
2022-08-05T13:34:20.956Z,2.65
2022-08-05T13:36:52.467Z,5.30
2022-08-05T13:40:13.153Z,3.88
2022-08-05T13:42:05.927Z,4.10
2022-08-05T13:44:32.731Z,2.20
2022-08-05T13:47:08.670Z,2.80
2022-08-05T13:49:36.013Z,4.00
2022-08-05T13:52:13.848Z,3.70
2022-08-05T13:54:40.751Z,4.80
2022-08-05T13:57:09.299Z,3.00
2022-08-05T13:59:38.119Z,16.35
2022-08-05T14:02:26.625Z,3.13
2022-08-05T14:05:15.335Z,3.33
2022-08-05T14:08:00.419Z,5.18
2022-08-05T14:10:33.479Z,4.80
2022-08-05T14:13:00.164Z,3.90
2022-08-05T14:16:04.560Z,3.77
2022-08-05T14:18:18.274Z,4.10
2022-08-05T14:20:48.660Z,2.42
2022-08-05T14:23:23.798Z,2.78
2022-08-05T14:25:58.168Z,3.63
2022-08-05T14:28:28.150Z,4.73
2022-08-05T14:30:56.174Z,5.03
2022-08-05T14:33:24.023Z,3.75
2022-08-05T14:35:52.014Z,4.90
2022-08-05T14:38:27.765Z,2.75
2022-08-05T14:41:05.592Z,5.33
2022-08-05T14:44:02.194Z,2.60
2022-08-05T14:46:28.752Z,2.28
2022-08-05T14:48:59.439Z,2.08
2022-08-05T14:51:26.454Z,3.20
2022-08-05T14:54:06.598Z,10.87
2022-08-05T14:56:46.580Z,2.90
2022-08-05T14:59:14.096Z,3.40
2022-08-05T15:01:48.357Z,2.97
2022-08-05T15:04:16.066Z,3.63
2022-08-05T15:06:49.468Z,4.87
2022-08-05T15:09:51.224Z,3.42
2022-08-05T15:12:07.081Z,3.00
2022-08-05T15:14:42.239Z,3.15
2022-08-05T15:17:46.289Z,5.32
2022-08-05T15:20:04.500Z,2.50
2022-08-05T15:22:31.196Z,3.35
2022-08-05T15:24:59.298Z,4.13
2022-08-05T15:27:26.240Z,5.15
2022-08-05T15:29:59.260Z,5.15
2022-08-05T15:32:27.206Z,2.80
2022-08-05T15:34:54.269Z,5.47
2022-08-05T15:38:33.129Z,2.50
2022-08-05T15:41:02.074Z,3.05
2022-08-05T15:43:09.061Z,4.20
2022-08-05T15:45:45.683Z,3.60
2022-08-05T15:48:14.277Z,2.90
2022-08-05T15:50:41.504Z,3.50
2022-08-05T15:53:12.779Z,3.38
2022-08-05T15:56:02.267Z,4.68
2022-08-05T15:58:35.797Z,3.80
2022-08-05T16:01:17.375Z,2.83
2022-08-05T16:03:50.454Z,4.60
2022-08-05T16:06:20.396Z,4.20
2022-08-05T16:08:50.294Z,3.50
2022-08-05T16:11:21.055Z,2.63
2022-08-05T16:14:06.730Z,3.63
2022-08-05T16:16:33.353Z,3.28
2022-08-05T16:18:59.994Z,4.78
2022-08-05T16:21:58.436Z,5.15
2022-08-05T16:24:39.879Z,3.43
2022-08-05T16:27:02.830Z,2.47
2022-08-05T16:29:37.334Z,4.50
2022-08-05T16:32:06.651Z,5.40
2022-08-05T16:34:36.950Z,8.52
2022-08-05T16:38:01.886Z,4.30
2022-08-05T16:40:04.969Z,5.03
2022-08-05T16:42:34.581Z,6.60
2022-08-05T16:45:01.949Z,10.18
2022-08-05T16:47:36.125Z,4.13
2022-08-05T16:50:04.642Z,5.23
2022-08-05T16:52:33.525Z,2.88
2022-08-05T16:55:00.643Z,3.85
2022-08-05T16:57:52.544Z,4.55
2022-08-05T17:00:14.308Z,2.33
2022-08-05T17:02:52.923Z,4.77
2022-08-05T17:05:19.880Z,4.25
2022-08-05T17:07:54.387Z,4.55
2022-08-05T17:10:21.700Z,5.15
2022-08-05T17:12:54.837Z,5.30
2022-08-05T17:15:21.689Z,9.07
2022-08-05T17:18:02.241Z,5.43
2022-08-05T17:20:29.175Z,5.75
2022-08-05T17:22:57.481Z,6.72
2022-08-05T17:25:39.388Z,6.45
2022-08-05T17:28:07.803Z,2.87
2022-08-05T17:30:42.437Z,6.05
2022-08-05T17:33:17.089Z,5.45
2022-08-05T17:36:07.330Z,3.53
2022-08-05T17:38:30.243Z,2.47
2022-08-05T17:40:58.932Z,4.50
2022-08-05T17:43:50.324Z,4.32
2022-08-05T17:46:12.959Z,3.97
2022-08-05T17:48:40.256Z,5.00
2022-08-05T17:51:09.857Z,6.00
2022-08-05T17:53:36.517Z,14.60
2022-08-05T17:56:04.628Z,11.75
2022-08-05T17:58:32.662Z,6.22
2022-08-05T18:00:59.591Z,3.17
2022-08-05T18:03:59.803Z,3.33
2022-08-05T18:06:15.208Z,6.47
2022-08-05T18:08:52.543Z,4.65
2022-08-05T18:11:24.328Z,4.70
2022-08-05T18:14:00.363Z,9.57
2022-08-05T18:16:30.309Z,6.95
2022-08-05T18:18:57.369Z,3.53
2022-08-05T18:21:26.311Z,5.30
2022-08-05T18:23:54.896Z,3.72
2022-08-05T18:26:29.099Z,6.45
2022-08-05T18:28:56.907Z,5.40
2022-08-05T18:31:24.075Z,4.73
2022-08-05T18:33:51.499Z,5.10
2022-08-05T18:36:19.151Z,5.35
2022-08-05T18:38:46.365Z,3.47
2022-08-05T18:41:58.534Z,6.13
2022-08-05T18:44:05.820Z,3.27
2022-08-05T18:46:34.395Z,4.03
2022-08-05T18:49:21.192Z,5.72
2022-08-05T18:52:08.859Z,9.05
2022-08-05T18:54:41.388Z,5.90
2022-08-05T18:57:15.556Z,4.03
2022-08-05T19:00:02.396Z,4.07
2022-08-05T19:02:29.189Z,4.93
2022-08-05T19:05:02.193Z,3.80
2022-08-05T19:07:47.950Z,2.75
2022-08-05T19:10:26.486Z,6.00
2022-08-05T19:12:54.958Z,3.03
2022-08-05T19:15:54.712Z,3.50
2022-08-05T19:18:10.770Z,3.95
2022-08-05T19:20:51.535Z,5.25
2022-08-05T19:24:03.670Z,6.23
2022-08-05T19:26:04.909Z,6.50
2022-08-05T19:28:35.143Z,4.40
2022-08-05T19:31:05.826Z,5.55
2022-08-05T19:33:35.590Z,2.22
2022-08-05T19:36:07.227Z,4.43
2022-08-05T19:38:36.414Z,4.70
2022-08-05T19:41:07.288Z,5.75
2022-08-05T19:44:05.995Z,5.13
2022-08-05T19:46:29.374Z,6.00
2022-08-05T19:49:02.791Z,3.93
2022-08-05T19:52:04.680Z,3.75
2022-08-05T19:54:26.799Z,5.32
2022-08-05T19:57:09.733Z,4.57
2022-08-05T19:59:55.960Z,3.33
2022-08-05T20:02:26.175Z,3.47
2022-08-05T20:04:55.414Z,6.18
2022-08-05T20:07:47.362Z,3.58
2022-08-05T20:10:13.784Z,2.35
2022-08-05T20:12:46.271Z,4.25
2022-08-05T20:15:23.058Z,7.07
2022-08-05T20:18:10.973Z,7.13
2022-08-05T20:20:56.234Z,4.13
2022-08-05T20:23:39.844Z,7.70
2022-08-05T20:26:16.439Z,4.22
2022-08-05T20:28:48.789Z,2.93
2022-08-05T20:31:16.872Z,3.63
2022-08-05T20:33:44.721Z,2.92
2022-08-05T20:36:11.726Z,3.70
2022-08-05T20:38:54.554Z,6.45
2022-08-05T20:41:27.502Z,5.43
2022-08-05T20:44:17.686Z,4.00
2022-08-05T20:46:47.082Z,3.55
2022-08-05T20:49:14.059Z,5.60
2022-08-05T20:51:40.676Z,6.07
2022-08-05T20:54:07.357Z,5.53
2022-08-05T20:56:42.491Z,5.72
2022-08-05T20:59:19.062Z,6.07
2022-08-05T21:01:46.903Z,3.95
2022-08-05T21:04:13.846Z,4.35
2022-08-05T21:06:45.840Z,7.57
2022-08-05T21:09:14.615Z,3.35
2022-08-05T21:12:09.456Z,4.25
2022-08-05T21:14:35.141Z,4.93
2022-08-05T21:17:05.065Z,8.60
2022-08-05T21:19:47.183Z,5.10
2022-08-05T21:22:23.552Z,4.55
2022-08-05T21:24:52.581Z,4.78
2022-08-05T21:27:25.373Z,5.70
2022-08-05T21:29:56.073Z,5.43
2022-08-05T21:32:27.548Z,3.50
2022-08-05T21:35:18.046Z,4.82
2022-08-05T21:37:47.216Z,6.60
2022-08-05T21:40:19.408Z,3.35
2022-08-05T21:42:47.273Z,3.70
2022-08-05T21:45:17.617Z,5.20
2022-08-05T21:47:55.683Z,8.38
2022-08-05T21:50:24.616Z,4.47
2022-08-05T21:52:51.408Z,5.43
2022-08-05T21:55:43.013Z,6.97
2022-08-05T21:58:06.032Z,7.53
2022-08-05T22:00:32.686Z,3.85
2022-08-05T22:02:59.827Z,6.93
2022-08-05T22:05:27.464Z,4.78
2022-08-05T22:07:59.319Z,4.82
2022-08-05T22:10:28.742Z,7.23
2022-08-05T22:12:58.774Z,7.68
2022-08-05T22:16:00.269Z,4.05
2022-08-05T22:18:14.375Z,5.97
2022-08-05T22:20:41.677Z,3.95
2022-08-05T22:24:01.920Z,6.23
2022-08-05T22:26:34.487Z,5.95
2022-08-05T22:29:02.334Z,7.90
2022-08-05T22:31:30.158Z,9.02
2022-08-05T22:34:01.522Z,6.75
2022-08-05T22:36:29.187Z,4.80
2022-08-05T22:38:56.826Z,7.88
2022-08-05T22:42:04.470Z,8.80
2022-08-05T22:44:11.964Z,4.10
2022-08-05T22:46:40.656Z,4.32
2022-08-05T22:49:12.514Z,6.63
2022-08-05T22:52:05.988Z,6.40
2022-08-05T22:54:34.993Z,7.85
2022-08-05T22:57:03.393Z,4.35
2022-08-05T22:59:48.305Z,7.03
2022-08-05T23:02:29.363Z,4.37
2022-08-05T23:05:01.807Z,5.00
2022-08-05T23:07:32.372Z,4.85
2022-08-05T23:10:02.012Z,4.22
2022-08-05T23:12:32.497Z,5.63
2022-08-05T23:15:03.811Z,8.20
2022-08-05T23:17:37.542Z,6.65
2022-08-05T23:20:22.109Z,5.05
2022-08-05T23:22:54.192Z,3.55
2022-08-05T23:25:50.871Z,9.55
2022-08-05T23:28:10.128Z,4.43
2022-08-05T23:30:39.576Z,7.35
2022-08-05T23:33:16.128Z,7.32
2022-08-05T23:35:48.992Z,7.72
2022-08-05T23:38:16.174Z,5.30
2022-08-05T23:40:49.388Z,4.03
2022-08-05T23:43:25.487Z,5.57
2022-08-05T23:46:21.392Z,6.85
2022-08-05T23:49:01.228Z,8.77
2022-08-05T23:51:53.349Z,5.47
2022-08-05T23:54:30.174Z,7.97
2022-08-05T23:57:03.675Z,7.53
2022-08-05T23:59:37.648Z,4.68
